createdAt,value
2019-04-20T00:01:33.974Z,13.30
2019-04-20T00:06:47.828Z,13.26
2019-04-20T00:12:07.196Z,13.18
2019-04-20T00:14:32.144Z,13.14
2019-04-20T00:16:57.422Z,13.09
2019-04-20T00:19:31.919Z,13.05
2019-04-20T00:22:15.236Z,12.99
2019-04-20T00:27:42.868Z,12.88
2019-04-20T00:30:10.310Z,12.83
2019-04-20T00:32:37.660Z,12.76
2019-04-20T00:34:50.692Z,12.65
2019-04-20T00:37:19.305Z,12.60
2019-04-20T00:39:48.850Z,12.60
2019-04-20T00:42:19.366Z,12.52
2019-04-20T00:45:12.833Z,12.52
2019-04-20T00:47:45.377Z,12.42
2019-04-20T00:53:20.433Z,12.34
2019-04-20T00:58:36.962Z,12.29
2019-04-20T01:01:20.549Z,12.26
2019-04-20T01:03:43.263Z,12.24
2019-04-20T01:09:01.799Z,12.17
2019-04-20T01:11:49.732Z,12.08
2019-04-20T01:17:14.022Z,12.03
2019-04-20T01:19:41.983Z,11.92
2019-04-20T01:22:13.615Z,11.92
2019-04-20T01:24:43.067Z,11.85
2019-04-20T01:27:58.890Z,11.75
2019-04-20T01:30:09.432Z,11.75
2019-04-20T01:32:36.005Z,11.69
2019-04-20T01:35:14.007Z,11.69
2019-04-20T01:40:02.619Z,11.64
2019-04-20T01:42:29.932Z,11.62
2019-04-20T01:44:58.977Z,11.58
2019-04-20T01:47:35.726Z,11.58
2019-04-20T01:50:05.837Z,11.52
2019-04-20T01:55:33.310Z,11.30
2019-04-20T01:58:06.262Z,11.27
2019-04-20T02:00:30.729Z,11.25
2019-04-20T02:03:17.012Z,11.25
2019-04-20T02:08:22.963Z,11.12
2019-04-20T02:10:53.702Z,11.12
2019-04-20T02:13:17.735Z,11.07
2019-04-20T02:16:12.893Z,11.04
2019-04-20T02:18:44.100Z,11.04
2019-04-20T02:21:19.861Z,10.98
2019-04-20T02:23:40.759Z,10.98
2019-04-20T02:26:01.376Z,10.93
2019-04-20T02:29:13.527Z,10.80
2019-04-20T02:34:57.764Z,10.68
2019-04-20T02:37:58.447Z,10.68
2019-04-20T02:45:33.361Z,10.44
2019-04-20T02:48:13.411Z,10.40
2019-04-20T02:53:20.329Z,10.30
2019-04-20T02:56:12.295Z,10.29
2019-04-20T02:58:41.535Z,10.29
2019-04-20T03:01:00.780Z,10.28
2019-04-20T03:03:17.274Z,10.25
2019-04-20T03:05:43.260Z,10.25
2019-04-20T03:08:46.903Z,10.30
2019-04-20T03:11:18.049Z,10.30
2019-04-20T03:13:41.752Z,10.31
2019-04-20T03:16:12.286Z,10.22
2019-04-20T03:18:39.936Z,10.22
2019-04-20T03:21:11.239Z,10.18
2019-04-20T03:23:46.215Z,10.14
2019-04-20T03:26:31.263Z,10.09
2019-04-20T03:29:09.904Z,10.09
2019-04-20T03:34:54.871Z,10.05
2019-04-20T03:37:07.302Z,10.08
2019-04-20T03:39:28.896Z,10.12
2019-04-20T03:41:46.989Z,10.13
2019-04-20T03:44:14.146Z,10.10
2019-04-20T03:46:45.558Z,10.07
2019-04-20T03:49:27.513Z,10.07
2019-04-20T03:51:57.417Z,10.03
2019-04-20T03:57:31.073Z,10.06
2019-04-20T04:00:01.754Z,10.06
2019-04-20T04:03:02.991Z,10.04
2019-04-20T04:05:34.061Z,10.02
2019-04-20T04:08:14.735Z,9.97
2019-04-20T04:11:14.782Z,9.97
2019-04-20T04:13:21.241Z,9.98
2019-04-20T04:18:34.674Z,9.97
2019-04-20T04:21:23.158Z,9.96
2019-04-20T04:26:38.051Z,9.95
2019-04-20T04:29:08.180Z,9.95
2019-04-20T04:31:41.291Z,9.95
2019-04-20T04:34:22.947Z,9.95
2019-04-20T04:37:14.965Z,9.92
2019-04-20T04:39:46.962Z,9.87
2019-04-20T04:42:20.377Z,9.83
2019-04-20T04:44:34.520Z,9.83
2019-04-20T04:46:57.824Z,9.79
2019-04-20T04:49:26.771Z,9.74
2019-04-20T04:51:57.454Z,9.61
2019-04-20T04:54:46.325Z,9.52
2019-04-20T04:57:07.384Z,9.52
2019-04-20T04:59:36.234Z,9.38
2019-04-20T05:02:29.798Z,9.38
2019-04-20T05:05:30.952Z,9.35
2019-04-20T05:08:10.197Z,9.35
2019-04-20T05:13:21.934Z,9.42
2019-04-20T05:16:03.586Z,9.46
2019-04-20T05:18:45.001Z,9.46
2019-04-20T05:24:15.362Z,9.74
2019-04-20T05:27:07.467Z,9.90
2019-04-20T05:31:56.262Z,10.02
2019-04-20T05:34:45.171Z,10.25
2019-04-20T05:37:24.000Z,10.38
2019-04-20T05:39:45.768Z,10.38
2019-04-20T05:42:09.563Z,10.48
2019-04-20T05:44:46.188Z,10.76
2019-04-20T05:47:11.295Z,10.96
2019-04-20T05:49:56.137Z,10.96
2019-04-20T05:52:35.102Z,11.12
2019-04-20T05:55:21.036Z,11.29
2019-04-20T05:57:52.437Z,11.42
2019-04-20T06:00:23.320Z,11.68
2019-04-20T06:02:44.083Z,11.68
2019-04-20T06:05:19.614Z,11.78
2019-04-20T06:07:42.046Z,11.85
2019-04-20T06:10:13.519Z,11.96
2019-04-20T06:12:47.789Z,12.21
2019-04-20T06:15:24.507Z,12.21
2019-04-20T06:18:03.880Z,12.35
2019-04-20T06:23:38.700Z,12.56
2019-04-20T06:29:22.531Z,12.75
2019-04-20T06:31:52.016Z,13.02
2019-04-20T06:37:29.725Z,13.44
2019-04-20T06:40:36.531Z,13.62
2019-04-20T06:42:52.029Z,13.62
2019-04-20T06:45:22.605Z,13.83
2019-04-20T06:47:52.105Z,14.01
2019-04-20T06:50:14.995Z,14.18
2019-04-20T06:53:01.912Z,14.31
2019-04-20T06:55:40.284Z,14.48
2019-04-20T06:58:39.570Z,14.80
2019-04-20T07:01:06.616Z,14.80
2019-04-20T07:03:53.115Z,14.97
2019-04-20T07:06:29.308Z,15.11
2019-04-20T07:08:51.093Z,15.48
2019-04-20T07:19:18.785Z,16.01
2019-04-20T07:22:23.377Z,16.17
2019-04-20T07:24:42.881Z,16.31
2019-04-20T07:27:06.835Z,16.43
2019-04-20T07:29:40.683Z,16.56
2019-04-20T07:31:57.702Z,16.87
2019-04-20T07:34:33.710Z,16.87
2019-04-20T07:37:43.171Z,16.99
2019-04-20T07:39:44.503Z,17.15
2019-04-20T07:42:08.465Z,17.28
2019-04-20T07:44:42.984Z,17.46
2019-04-20T07:47:18.384Z,17.66
2019-04-20T07:49:34.610Z,17.85
2019-04-20T07:51:49.460Z,18.03
2019-04-20T07:54:49.279Z,18.18
2019-04-20T07:57:03.511Z,18.34
2019-04-20T07:59:27.515Z,18.59
2019-04-20T08:02:26.194Z,18.59
2019-04-20T08:04:53.596Z,18.69
2019-04-20T08:07:09.565Z,18.91
2019-04-20T08:09:49.005Z,19.00
2019-04-20T08:12:38.288Z,19.00
2019-04-20T08:15:03.541Z,19.12
2019-04-20T08:17:41.898Z,19.20
2019-04-20T08:20:05.699Z,19.28
2019-04-20T08:22:34.142Z,19.51
2019-04-20T08:24:55.265Z,19.62
2019-04-20T08:27:18.395Z,19.62
2019-04-20T08:30:09.073Z,19.88
2019-04-20T08:33:16.477Z,19.88
2019-04-20T08:35:49.349Z,20.03
2019-04-20T08:38:47.341Z,20.31
2019-04-20T08:40:46.333Z,20.41
2019-04-20T08:45:48.442Z,20.55
2019-04-20T08:48:18.873Z,20.84
2019-04-20T08:50:45.524Z,21.00
2019-04-20T08:53:27.592Z,21.18
2019-04-20T08:55:42.529Z,21.18
2019-04-20T08:57:57.055Z,21.48
2019-04-20T09:00:33.343Z,21.48
2019-04-20T09:03:12.144Z,21.76
2019-04-20T09:05:43.746Z,21.76
2019-04-20T09:08:11.292Z,21.84
2019-04-20T09:10:48.212Z,22.06
2019-04-20T09:13:11.664Z,22.06
2019-04-20T09:15:32.079Z,22.22
2019-04-20T09:18:09.056Z,22.55
2019-04-20T09:20:43.542Z,22.55
2019-04-20T09:23:21.351Z,22.76
2019-04-20T09:28:38.472Z,23.20
2019-04-20T09:31:29.288Z,23.41
2019-04-20T09:34:06.268Z,23.59
2019-04-20T09:36:51.326Z,23.81
2019-04-20T09:39:35.140Z,24.11
2019-04-20T09:42:06.683Z,24.61
2019-04-20T09:44:38.079Z,25.18
2019-04-20T09:47:07.380Z,25.66
2019-04-20T09:49:49.385Z,26.14
2019-04-20T09:52:21.219Z,26.93
2019-04-20T09:54:57.649Z,26.93
2019-04-20T09:57:26.776Z,27.29
2019-04-20T09:59:57.708Z,27.65
2019-04-20T10:02:16.763Z,27.88
2019-04-20T10:04:37.705Z,28.07
2019-04-20T10:07:12.933Z,28.25
2019-04-20T10:09:39.810Z,28.52
2019-04-20T10:12:05.871Z,28.79
2019-04-20T10:14:36.775Z,29.00
2019-04-20T10:17:10.002Z,29.19
2019-04-20T10:19:40.973Z,29.46
2019-04-20T10:22:13.055Z,29.74
2019-04-20T10:24:42.304Z,29.94
2019-04-20T10:27:10.760Z,30.22
2019-04-20T10:29:39.731Z,30.56
2019-04-20T10:32:12.578Z,30.87
2019-04-20T10:34:38.847Z,31.18
2019-04-20T10:37:25.631Z,31.32
2019-04-20T10:39:54.485Z,31.63
2019-04-20T10:42:23.893Z,31.81
2019-04-20T10:44:55.184Z,31.91
2019-04-20T10:47:25.342Z,32.17
2019-04-20T10:50:00.877Z,32.50
2019-04-20T10:52:32.034Z,32.77
2019-04-20T10:55:04.220Z,33.00
2019-04-20T10:57:33.408Z,33.36
2019-04-20T11:00:03.823Z,33.65
2019-04-20T11:02:32.072Z,33.93
2019-04-20T11:05:00.367Z,34.13
2019-04-20T11:07:28.872Z,34.29
2019-04-20T11:10:17.815Z,34.34
2019-04-20T11:12:28.711Z,34.43
2019-04-20T11:14:56.963Z,34.65
2019-04-20T11:17:28.559Z,34.85
2019-04-20T11:19:55.405Z,34.78
2019-04-20T11:22:24.163Z,34.78
2019-04-20T11:24:54.363Z,34.94
2019-04-20T11:27:22.521Z,35.05
2019-04-20T11:29:51.897Z,35.27
2019-04-20T11:32:20.289Z,35.43
2019-04-20T11:34:49.179Z,35.55
2019-04-20T11:37:19.281Z,35.70
2019-04-20T11:39:52.894Z,35.81
2019-04-20T11:42:21.721Z,35.87
2019-04-20T11:44:54.920Z,35.87
2019-04-20T11:47:24.977Z,35.86
2019-04-20T11:49:55.398Z,35.88
2019-04-20T11:52:24.910Z,35.85
2019-04-20T11:54:54.670Z,35.83
2019-04-20T11:57:23.247Z,35.87
2019-04-20T11:59:52.906Z,35.95
2019-04-20T12:02:35.082Z,35.99
2019-04-20T12:05:13.158Z,35.97
2019-04-20T12:07:33.744Z,35.87
2019-04-20T12:10:08.108Z,35.89
2019-04-20T12:12:41.526Z,35.89
2019-04-20T12:15:04.605Z,36.01
2019-04-20T12:17:33.498Z,36.00
2019-04-20T12:20:01.856Z,36.15
2019-04-20T12:22:32.346Z,36.15
2019-04-20T12:25:00.403Z,36.15
2019-04-20T12:27:28.722Z,36.13
2019-04-20T12:29:57.534Z,36.20
2019-04-20T12:32:35.223Z,36.47
2019-04-20T12:34:58.263Z,36.37
2019-04-20T12:37:27.017Z,36.37
2019-04-20T12:39:58.290Z,36.40
2019-04-20T12:42:26.349Z,36.35
2019-04-20T12:44:55.631Z,36.42
2019-04-20T12:47:24.108Z,36.37
2019-04-20T12:49:52.214Z,36.33
2019-04-20T12:52:22.971Z,36.19
2019-04-20T12:54:52.543Z,36.16
2019-04-20T12:57:20.747Z,36.08
2019-04-20T12:59:49.612Z,36.03
2019-04-20T13:02:23.402Z,36.24
2019-04-20T13:04:51.608Z,36.51
2019-04-20T13:07:19.804Z,36.51
2019-04-20T13:09:50.692Z,36.62
2019-04-20T13:12:36.317Z,36.54
2019-04-20T13:15:06.535Z,36.20
2019-04-20T13:17:34.767Z,35.88
2019-04-20T13:20:10.427Z,35.45
2019-04-20T13:22:41.117Z,35.00
2019-04-20T13:25:13.064Z,34.70
2019-04-20T13:27:44.986Z,34.70
2019-04-20T13:30:16.567Z,34.70
2019-04-20T13:32:47.802Z,34.88
2019-04-20T13:35:22.510Z,35.11
2019-04-20T13:37:49.863Z,35.35
2019-04-20T13:40:21.832Z,35.61
2019-04-20T13:42:51.896Z,35.82
2019-04-20T13:45:21.246Z,36.08
2019-04-20T13:47:52.792Z,36.23
2019-04-20T13:50:22.051Z,36.20
2019-04-20T13:52:51.035Z,36.03
2019-04-20T13:55:22.073Z,35.74
2019-04-20T13:58:05.824Z,35.39
2019-04-20T14:00:52.108Z,34.98
2019-04-20T14:03:24.899Z,34.27
2019-04-20T14:05:56.508Z,33.55
2019-04-20T14:08:25.319Z,32.50
2019-04-20T14:10:55.672Z,32.50
2019-04-20T14:13:35.263Z,32.19
2019-04-20T14:16:00.808Z,31.55
2019-04-20T14:18:29.136Z,31.55
2019-04-20T14:20:58.332Z,31.54
2019-04-20T14:23:27.063Z,31.49
2019-04-20T14:26:03.114Z,31.50
2019-04-20T14:28:36.735Z,31.66
2019-04-20T14:31:04.186Z,31.64
2019-04-20T14:33:34.865Z,31.56
2019-04-20T14:36:03.285Z,30.78
2019-04-20T14:38:32.362Z,30.78
2019-04-20T14:41:02.167Z,30.46
2019-04-20T14:43:32.878Z,30.51
2019-04-20T14:46:00.945Z,30.83
2019-04-20T14:48:29.140Z,31.25
2019-04-20T14:50:57.415Z,31.37
2019-04-20T14:53:27.359Z,31.48
2019-04-20T14:55:57.599Z,31.50
2019-04-20T14:58:45.080Z,31.54
2019-04-20T15:01:40.993Z,31.67
2019-04-20T15:04:14.909Z,31.85
2019-04-20T15:06:42.151Z,32.11
2019-04-20T15:09:14.934Z,32.24
2019-04-20T15:11:46.018Z,32.24
2019-04-20T15:14:14.458Z,32.01
2019-04-20T15:16:42.800Z,31.78
2019-04-20T15:19:32.024Z,31.60
2019-04-20T15:22:07.564Z,31.54
2019-04-20T15:24:37.584Z,31.53
2019-04-20T15:27:10.155Z,31.41
2019-04-20T15:29:40.343Z,31.50
2019-04-20T15:32:10.155Z,31.42
2019-04-20T15:34:39.177Z,31.62
2019-04-20T15:37:07.908Z,32.04
2019-04-20T15:39:37.027Z,32.47
2019-04-20T15:42:07.733Z,32.57
2019-04-20T15:44:37.466Z,32.49
2019-04-20T15:47:07.028Z,32.50
2019-04-20T15:49:42.033Z,33.05
2019-04-20T15:52:13.555Z,33.05
2019-04-20T15:54:41.207Z,33.37
2019-04-20T15:57:16.609Z,33.98
2019-04-20T15:59:40.708Z,33.98
2019-04-20T16:02:15.558Z,34.18
2019-04-20T16:05:00.682Z,34.18
2019-04-20T16:07:32.907Z,34.34
2019-04-20T16:09:59.129Z,34.49
2019-04-20T16:12:28.893Z,34.57
2019-04-20T16:14:57.702Z,34.46
2019-04-20T16:17:32.800Z,34.29
2019-04-20T16:20:05.998Z,32.64
2019-04-20T16:22:31.982Z,32.64
2019-04-20T16:25:19.287Z,31.06
2019-04-20T16:27:47.890Z,29.72
2019-04-20T16:30:17.857Z,28.50
2019-04-20T16:32:46.072Z,27.70
2019-04-20T16:35:14.589Z,27.07
2019-04-20T16:37:42.691Z,26.55
2019-04-20T16:40:11.636Z,25.69
2019-04-20T16:42:42.198Z,25.69
2019-04-20T16:45:11.487Z,25.32
2019-04-20T16:47:39.952Z,25.01
2019-04-20T16:50:08.835Z,24.71
2019-04-20T16:52:40.972Z,24.46
2019-04-20T16:55:11.277Z,24.27
2019-04-20T16:57:45.021Z,24.07
2019-04-20T17:00:13.701Z,23.92
2019-04-20T17:02:44.480Z,23.76
2019-04-20T17:05:15.224Z,23.63
2019-04-20T17:07:48.958Z,23.37
2019-04-20T17:10:20.177Z,23.37
2019-04-20T17:12:55.695Z,23.11
2019-04-20T17:15:24.018Z,22.95
2019-04-20T17:17:55.717Z,22.95
2019-04-20T17:20:27.195Z,22.83
2019-04-20T17:22:56.479Z,22.59
2019-04-20T17:25:25.785Z,22.59
2019-04-20T17:28:18.316Z,22.50
2019-04-20T17:31:09.184Z,22.39
2019-04-20T17:33:58.855Z,22.28
2019-04-20T17:36:24.734Z,22.19
2019-04-20T17:38:54.515Z,21.97
2019-04-20T17:41:41.439Z,21.88
2019-04-20T17:44:09.932Z,21.88
2019-04-20T17:46:53.346Z,21.79
2019-04-20T17:49:28.255Z,21.70
2019-04-20T17:52:05.105Z,21.58
2019-04-20T17:54:27.187Z,21.49
2019-04-20T17:56:56.213Z,21.27
2019-04-20T17:59:26.289Z,21.27
2019-04-20T18:02:24.963Z,21.15
2019-04-20T18:07:46.282Z,20.81
2019-04-20T18:10:17.257Z,20.71
2019-04-20T18:12:38.621Z,20.60
2019-04-20T18:15:21.060Z,20.60
2019-04-20T18:18:00.258Z,20.51
2019-04-20T18:20:28.041Z,20.41
2019-04-20T18:22:58.839Z,20.32
2019-04-20T18:25:56.199Z,20.21
2019-04-20T18:28:14.590Z,20.11
2019-04-20T18:30:54.753Z,20.01
2019-04-20T18:33:18.850Z,19.81
2019-04-20T18:35:47.909Z,19.68
2019-04-20T18:38:24.033Z,19.59
2019-04-20T18:41:00.507Z,19.59
2019-04-20T18:43:26.186Z,19.39
2019-04-20T18:46:12.462Z,19.30
2019-04-20T18:48:43.390Z,19.30
2019-04-20T18:50:54.826Z,19.12
2019-04-20T18:53:32.523Z,19.05
2019-04-20T18:56:00.594Z,18.96
2019-04-20T18:58:28.977Z,18.87
2019-04-20T19:00:58.993Z,18.87
2019-04-20T19:03:33.696Z,18.75
2019-04-20T19:06:00.194Z,18.64
2019-04-20T19:08:33.900Z,18.53
2019-04-20T19:11:04.135Z,18.34
2019-04-20T19:13:40.199Z,18.34
2019-04-20T19:16:34.714Z,18.21
2019-04-20T19:19:28.584Z,18.21
2019-04-20T19:21:48.104Z,18.16
2019-04-20T19:24:29.500Z,18.11
2019-04-20T19:27:02.943Z,18.03
2019-04-20T19:29:34.593Z,18.03
2019-04-20T19:32:21.120Z,17.96
2019-04-20T19:34:47.507Z,17.93
2019-04-20T19:37:15.683Z,17.88
2019-04-20T19:39:53.238Z,17.88
2019-04-20T19:42:27.624Z,17.81
2019-04-20T19:44:58.027Z,17.75
2019-04-20T19:47:33.535Z,17.63
2019-04-20T19:49:51.821Z,17.63
2019-04-20T19:52:36.870Z,17.59
2019-04-20T19:55:02.551Z,17.56
2019-04-20T19:57:35.115Z,17.50
2019-04-20T19:59:52.144Z,17.50
2019-04-20T20:02:18.445Z,17.48
2019-04-20T20:05:00.434Z,17.45
2019-04-20T20:07:28.470Z,17.40
2019-04-20T20:09:55.665Z,17.40
2019-04-20T20:12:27.363Z,17.37
2019-04-20T20:14:57.436Z,17.34
2019-04-20T20:17:48.645Z,17.29
2019-04-20T20:20:38.252Z,17.24
2019-04-20T20:23:16.173Z,17.13
2019-04-20T20:25:54.833Z,17.13
2019-04-20T20:28:50.712Z,17.07
2019-04-20T20:31:28.279Z,16.99
2019-04-20T20:33:58.079Z,16.91
2019-04-20T20:36:21.753Z,16.81
2019-04-20T20:38:52.508Z,16.58
2019-04-20T20:42:04.867Z,16.58
2019-04-20T20:44:38.018Z,16.35
2019-04-20T20:47:39.682Z,16.25
2019-04-20T20:50:15.551Z,16.25
2019-04-20T20:52:36.911Z,16.16
2019-04-20T20:58:18.332Z,15.95
2019-04-20T21:03:32.260Z,15.66
2019-04-20T21:05:58.107Z,15.58
2019-04-20T21:08:26.637Z,15.58
2019-04-20T21:14:01.784Z,15.48
2019-04-20T21:20:04.358Z,15.36
2019-04-20T21:25:03.548Z,15.44
2019-04-20T21:27:33.167Z,15.48
2019-04-20T21:30:03.524Z,15.43
2019-04-20T21:35:43.322Z,15.37
2019-04-20T21:41:21.844Z,15.18
2019-04-20T21:44:16.953Z,14.99
2019-04-20T21:47:10.205Z,14.99
2019-04-20T21:52:26.917Z,14.86
2019-04-20T21:55:07.996Z,14.83
2019-04-20T21:57:59.050Z,14.89
2019-04-20T22:00:47.721Z,15.03
2019-04-20T22:03:32.248Z,15.03
2019-04-20T22:06:34.249Z,15.05
2019-04-20T22:09:25.694Z,15.08
2019-04-20T22:14:33.640Z,15.01
2019-04-20T22:17:23.657Z,15.01
2019-04-20T22:20:20.066Z,14.93
2019-04-20T22:25:47.475Z,14.58
2019-04-20T22:28:00.624Z,14.58
2019-04-20T22:30:48.299Z,14.43
2019-04-20T22:36:34.037Z,14.21
2019-04-20T22:39:15.926Z,14.01
2019-04-20T22:42:01.155Z,13.93
2019-04-20T22:44:26.566Z,13.87
2019-04-20T22:46:54.282Z,13.80
2019-04-20T22:49:36.139Z,13.80
2019-04-20T22:52:00.638Z,13.72
2019-04-20T22:54:36.265Z,13.57
2019-04-20T22:57:02.276Z,13.50
2019-04-20T22:59:24.631Z,13.50
2019-04-20T23:01:56.135Z,13.38
2019-04-20T23:04:38.951Z,13.32
2019-04-20T23:07:08.433Z,13.32
2019-04-20T23:09:43.911Z,13.19
2019-04-20T23:12:11.222Z,13.13
2019-04-20T23:14:36.322Z,13.05
2019-04-20T23:17:30.187Z,12.98
2019-04-20T23:19:57.718Z,12.91
2019-04-20T23:22:45.719Z,12.82
2019-04-20T23:25:11.268Z,12.74
2019-04-20T23:27:41.804Z,12.74
2019-04-20T23:33:14.149Z,12.60
2019-04-20T23:35:44.874Z,12.54
2019-04-20T23:38:15.825Z,12.48
2019-04-20T23:40:59.632Z,12.35
2019-04-20T23:43:47.355Z,12.35
2019-04-20T23:46:34.899Z,12.30
2019-04-20T23:49:27.256Z,12.24
2019-04-20T23:52:09.673Z,12.13
2019-04-20T23:54:25.587Z,12.13
2019-04-20T23:56:50.077Z,12.06
2019-04-20T23:59:19.169Z,11.97
